sensor_id;sensor_type;location;lat;lon;timestamp;P1;durP1;ratioP1;P2;durP2;ratioP2
69047;SDS011;56119;50.118;8.642;2023-05-08T00:00:32;11.50;;;9.88;;
69047;SDS011;56119;50.118;8.642;2023-05-08T00:02:58;12.13;;;10.35;;
69047;SDS011;56119;50.118;8.642;2023-05-08T00:05:24;12.55;;;10.75;;
69047;SDS011;56119;50.118;8.642;2023-05-08T00:07:50;12.93;;;10.50;;
69047;SDS011;56119;50.118;8.642;2023-05-08T00:10:17;11.88;;;10.68;;
69047;SDS011;56119;50.118;8.642;2023-05-08T00:12:43;11.90;;;9.98;;
69047;SDS011;56119;50.118;8.642;2023-05-08T00:15:09;11.68;;;10.48;;
69047;SDS011;56119;50.118;8.642;2023-05-08T00:17:35;13.65;;;10.35;;
69047;SDS011;56119;50.118;8.642;2023-05-08T00:20:01;12.95;;;11.52;;
69047;SDS011;56119;50.118;8.642;2023-05-08T00:22:28;11.18;;;10.07;;
69047;SDS011;56119;50.118;8.642;2023-05-08T00:24:54;11.57;;;10.32;;
69047;SDS011;56119;50.118;8.642;2023-05-08T00:27:20;11.55;;;10.18;;
69047;SDS011;56119;50.118;8.642;2023-05-08T00:29:47;11.60;;;10.50;;
69047;SDS011;56119;50.118;8.642;2023-05-08T00:32:14;11.60;;;10.43;;
69047;SDS011;56119;50.118;8.642;2023-05-08T00:34:40;11.38;;;10.07;;
69047;SDS011;56119;50.118;8.642;2023-05-08T00:37:06;11.70;;;10.50;;
69047;SDS011;56119;50.118;8.642;2023-05-08T00:39:32;12.27;;;10.88;;
69047;SDS011;56119;50.118;8.642;2023-05-08T00:41:58;12.38;;;11.13;;
69047;SDS011;56119;50.118;8.642;2023-05-08T00:44:24;11.45;;;10.25;;
69047;SDS011;56119;50.118;8.642;2023-05-08T00:46:50;11.18;;;10.00;;
69047;SDS011;56119;50.118;8.642;2023-05-08T00:49:16;11.80;;;10.15;;
69047;SDS011;56119;50.118;8.642;2023-05-08T00:51:42;12.00;;;10.18;;
69047;SDS011;56119;50.118;8.642;2023-05-08T00:54:08;14.23;;;11.02;;
69047;SDS011;56119;50.118;8.642;2023-05-08T00:56:35;12.05;;;10.40;;
69047;SDS011;56119;50.118;8.642;2023-05-08T00:59:02;12.43;;;11.15;;
69047;SDS011;56119;50.118;8.642;2023-05-08T01:01:28;13.45;;;11.10;;
69047;SDS011;56119;50.118;8.642;2023-05-08T01:03:54;11.93;;;10.60;;
69047;SDS011;56119;50.118;8.642;2023-05-08T01:06:20;11.77;;;10.52;;
69047;SDS011;56119;50.118;8.642;2023-05-08T01:08:46;11.32;;;10.18;;
69047;SDS011;56119;50.118;8.642;2023-05-08T01:19:03;12.00;;;10.75;;
69047;SDS011;56119;50.118;8.642;2023-05-08T01:34:37;11.90;;;10.68;;
69047;SDS011;56119;50.118;8.642;2023-05-08T01:37:06;11.25;;;10.15;;
69047;SDS011;56119;50.118;8.642;2023-05-08T01:39:43;11.43;;;10.23;;
69047;SDS011;56119;50.118;8.642;2023-05-08T01:44:46;12.13;;;10.70;;
69047;SDS011;56119;50.118;8.642;2023-05-08T01:47:13;11.00;;;9.75;;
69047;SDS011;56119;50.118;8.642;2023-05-08T01:49:41;12.57;;;10.45;;
69047;SDS011;56119;50.118;8.642;2023-05-08T01:52:12;11.75;;;9.77;;
69047;SDS011;56119;50.118;8.642;2023-05-08T01:54:43;12.35;;;9.82;;
69047;SDS011;56119;50.118;8.642;2023-05-08T01:57:10;11.75;;;10.52;;
69047;SDS011;56119;50.118;8.642;2023-05-08T01:59:37;11.98;;;10.73;;
69047;SDS011;56119;50.118;8.642;2023-05-08T02:02:03;10.73;;;9.73;;
69047;SDS011;56119;50.118;8.642;2023-05-08T02:04:30;11.50;;;10.30;;
69047;SDS011;56119;50.118;8.642;2023-05-08T02:06:58;11.07;;;9.90;;
69047;SDS011;56119;50.118;8.642;2023-05-08T02:09:24;11.40;;;9.77;;
69047;SDS011;56119;50.118;8.642;2023-05-08T02:11:51;14.43;;;10.98;;
69047;SDS011;56119;50.118;8.642;2023-05-08T02:14:18;11.68;;;10.45;;
69047;SDS011;56119;50.118;8.642;2023-05-08T02:16:44;12.70;;;11.48;;
69047;SDS011;56119;50.118;8.642;2023-05-08T02:19:12;10.95;;;9.85;;
69047;SDS011;56119;50.118;8.642;2023-05-08T02:21:39;12.13;;;10.73;;
69047;SDS011;56119;50.118;8.642;2023-05-08T02:24:05;13.98;;;9.98;;
69047;SDS011;56119;50.118;8.642;2023-05-08T02:26:32;12.18;;;10.38;;
69047;SDS011;56119;50.118;8.642;2023-05-08T02:28:59;11.23;;;10.07;;
69047;SDS011;56119;50.118;8.642;2023-05-08T02:31:26;12.07;;;10.98;;
69047;SDS011;56119;50.118;8.642;2023-05-08T02:33:52;12.07;;;10.88;;
69047;SDS011;56119;50.118;8.642;2023-05-08T02:36:19;11.93;;;10.73;;
69047;SDS011;56119;50.118;8.642;2023-05-08T02:38:46;13.05;;;10.30;;
69047;SDS011;56119;50.118;8.642;2023-05-08T02:41:13;12.68;;;11.15;;
69047;SDS011;56119;50.118;8.642;2023-05-08T02:43:40;11.77;;;10.45;;
69047;SDS011;56119;50.118;8.642;2023-05-08T02:46:20;11.60;;;10.40;;
69047;SDS011;56119;50.118;8.642;2023-05-08T02:48:53;12.38;;;11.10;;
69047;SDS011;56119;50.118;8.642;2023-05-08T02:51:22;12.07;;;10.77;;
69047;SDS011;56119;50.118;8.642;2023-05-08T02:53:53;11.70;;;10.52;;
69047;SDS011;56119;50.118;8.642;2023-05-08T02:56:30;13.25;;;10.90;;
69047;SDS011;56119;50.118;8.642;2023-05-08T02:59:00;12.05;;;10.85;;
69047;SDS011;56119;50.118;8.642;2023-05-08T03:04:24;13.23;;;11.75;;
69047;SDS011;56119;50.118;8.642;2023-05-08T03:06:52;14.65;;;10.38;;
69047;SDS011;56119;50.118;8.642;2023-05-08T03:09:19;12.60;;;11.30;;
69047;SDS011;56119;50.118;8.642;2023-05-08T03:11:46;14.07;;;11.32;;
69047;SDS011;56119;50.118;8.642;2023-05-08T03:14:13;12.63;;;11.18;;
69047;SDS011;56119;50.118;8.642;2023-05-08T03:16:40;13.55;;;11.43;;
69047;SDS011;56119;50.118;8.642;2023-05-08T03:19:10;12.20;;;11.00;;
69047;SDS011;56119;50.118;8.642;2023-05-08T03:21:39;11.82;;;10.55;;
69047;SDS011;56119;50.118;8.642;2023-05-08T03:24:07;12.18;;;10.73;;
69047;SDS011;56119;50.118;8.642;2023-05-08T03:26:34;13.10;;;10.98;;
69047;SDS011;56119;50.118;8.642;2023-05-08T03:29:01;12.13;;;10.43;;
69047;SDS011;56119;50.118;8.642;2023-05-08T03:31:27;13.35;;;11.95;;
69047;SDS011;56119;50.118;8.642;2023-05-08T03:33:56;14.77;;;10.80;;
69047;SDS011;56119;50.118;8.642;2023-05-08T03:36:24;13.10;;;11.35;;
69047;SDS011;56119;50.118;8.642;2023-05-08T03:38:51;12.73;;;11.43;;
69047;SDS011;56119;50.118;8.642;2023-05-08T03:41:17;13.05;;;11.63;;
69047;SDS011;56119;50.118;8.642;2023-05-08T03:43:43;14.57;;;11.63;;
69047;SDS011;56119;50.118;8.642;2023-05-08T03:46:08;12.27;;;10.95;;
69047;SDS011;56119;50.118;8.642;2023-05-08T03:48:35;12.43;;;10.93;;
69047;SDS011;56119;50.118;8.642;2023-05-08T03:51:01;11.02;;;9.93;;
69047;SDS011;56119;50.118;8.642;2023-05-08T03:53:28;13.20;;;11.70;;
69047;SDS011;56119;50.118;8.642;2023-05-08T03:55:55;13.90;;;11.50;;
69047;SDS011;56119;50.118;8.642;2023-05-08T04:08:31;13.00;;;11.55;;
69047;SDS011;56119;50.118;8.642;2023-05-08T04:11:08;12.48;;;11.18;;
69047;SDS011;56119;50.118;8.642;2023-05-08T04:13:38;12.68;;;11.38;;
69047;SDS011;56119;50.118;8.642;2023-05-08T04:16:11;12.63;;;11.32;;
69047;SDS011;56119;50.118;8.642;2023-05-08T04:18:39;13.32;;;11.95;;
69047;SDS011;56119;50.118;8.642;2023-05-08T04:21:09;13.77;;;12.13;;
69047;SDS011;56119;50.118;8.642;2023-05-08T04:23:36;13.15;;;11.85;;
69047;SDS011;56119;50.118;8.642;2023-05-08T04:26:03;14.15;;;12.48;;
69047;SDS011;56119;50.118;8.642;2023-05-08T04:28:30;13.07;;;11.75;;
69047;SDS011;56119;50.118;8.642;2023-05-08T04:30:56;13.55;;;12.00;;
69047;SDS011;56119;50.118;8.642;2023-05-08T04:33:22;12.63;;;10.90;;
69047;SDS011;56119;50.118;8.642;2023-05-08T04:35:48;13.25;;;11.85;;
69047;SDS011;56119;50.118;8.642;2023-05-08T04:38:15;13.43;;;12.00;;
69047;SDS011;56119;50.118;8.642;2023-05-08T04:40:41;14.50;;;12.20;;
69047;SDS011;56119;50.118;8.642;2023-05-08T04:43:07;13.60;;;12.20;;
69047;SDS011;56119;50.118;8.642;2023-05-08T04:45:33;15.23;;;12.80;;
69047;SDS011;56119;50.118;8.642;2023-05-08T04:47:59;12.95;;;11.40;;
69047;SDS011;56119;50.118;8.642;2023-05-08T04:50:25;13.00;;;11.63;;
69047;SDS011;56119;50.118;8.642;2023-05-08T04:52:51;13.45;;;11.85;;
69047;SDS011;56119;50.118;8.642;2023-05-08T04:55:17;12.52;;;11.13;;
69047;SDS011;56119;50.118;8.642;2023-05-08T04:57:43;12.85;;;11.13;;
69047;SDS011;56119;50.118;8.642;2023-05-08T05:00:09;12.43;;;11.23;;
69047;SDS011;56119;50.118;8.642;2023-05-08T05:02:35;12.95;;;11.55;;
69047;SDS011;56119;50.118;8.642;2023-05-08T05:05:01;13.60;;;11.65;;
69047;SDS011;56119;50.118;8.642;2023-05-08T05:07:27;13.52;;;11.73;;
69047;SDS011;56119;50.118;8.642;2023-05-08T05:09:53;13.23;;;11.30;;
69047;SDS011;56119;50.118;8.642;2023-05-08T05:12:19;13.55;;;10.95;;
69047;SDS011;56119;50.118;8.642;2023-05-08T05:14:45;12.35;;;11.00;;
69047;SDS011;56119;50.118;8.642;2023-05-08T05:17:11;13.75;;;12.00;;
69047;SDS011;56119;50.118;8.642;2023-05-08T05:19:37;14.60;;;12.47;;
69047;SDS011;56119;50.118;8.642;2023-05-08T05:22:03;11.77;;;10.55;;
69047;SDS011;56119;50.118;8.642;2023-05-08T05:24:30;12.52;;;11.23;;
69047;SDS011;56119;50.118;8.642;2023-05-08T05:26:56;13.02;;;11.63;;
69047;SDS011;56119;50.118;8.642;2023-05-08T05:29:22;11.82;;;10.50;;
69047;SDS011;56119;50.118;8.642;2023-05-08T05:31:48;16.05;;;12.68;;
69047;SDS011;56119;50.118;8.642;2023-05-08T05:34:14;13.55;;;11.15;;
69047;SDS011;56119;50.118;8.642;2023-05-08T05:36:40;12.77;;;11.48;;
69047;SDS011;56119;50.118;8.642;2023-05-08T05:39:06;14.50;;;12.13;;
69047;SDS011;56119;50.118;8.642;2023-05-08T05:41:32;13.50;;;12.10;;
69047;SDS011;56119;50.118;8.642;2023-05-08T05:43:58;18.75;;;13.80;;
69047;SDS011;56119;50.118;8.642;2023-05-08T05:46:24;16.13;;;13.40;;
69047;SDS011;56119;50.118;8.642;2023-05-08T05:48:56;17.33;;;13.50;;
69047;SDS011;56119;50.118;8.642;2023-05-08T05:51:22;14.68;;;13.10;;
69047;SDS011;56119;50.118;8.642;2023-05-08T05:53:48;16.25;;;12.15;;
69047;SDS011;56119;50.118;8.642;2023-05-08T05:56:14;14.45;;;12.07;;
69047;SDS011;56119;50.118;8.642;2023-05-08T05:58:40;17.05;;;12.65;;
69047;SDS011;56119;50.118;8.642;2023-05-08T06:01:08;13.13;;;11.55;;
69047;SDS011;56119;50.118;8.642;2023-05-08T06:03:35;14.65;;;12.70;;
69047;SDS011;56119;50.118;8.642;2023-05-08T06:06:01;14.25;;;12.75;;
69047;SDS011;56119;50.118;8.642;2023-05-08T06:08:27;13.98;;;12.48;;
69047;SDS011;56119;50.118;8.642;2023-05-08T06:10:53;15.45;;;13.27;;
69047;SDS011;56119;50.118;8.642;2023-05-08T06:13:19;14.10;;;12.63;;
69047;SDS011;56119;50.118;8.642;2023-05-08T06:15:45;13.65;;;12.23;;
69047;SDS011;56119;50.118;8.642;2023-05-08T06:18:11;14.63;;;12.18;;
69047;SDS011;56119;50.118;8.642;2023-05-08T06:20:37;14.70;;;12.55;;
69047;SDS011;56119;50.118;8.642;2023-05-08T06:23:04;18.83;;;13.05;;
69047;SDS011;56119;50.118;8.642;2023-05-08T06:25:30;14.82;;;13.32;;
69047;SDS011;56119;50.118;8.642;2023-05-08T06:27:56;13.82;;;12.32;;
69047;SDS011;56119;50.118;8.642;2023-05-08T06:30:22;17.23;;;12.60;;
69047;SDS011;56119;50.118;8.642;2023-05-08T06:32:48;14.27;;;12.23;;
69047;SDS011;56119;50.118;8.642;2023-05-08T06:35:14;15.55;;;12.85;;
69047;SDS011;56119;50.118;8.642;2023-05-08T06:37:42;14.50;;;12.98;;
69047;SDS011;56119;50.118;8.642;2023-05-08T06:40:09;14.45;;;12.73;;
69047;SDS011;56119;50.118;8.642;2023-05-08T06:42:35;14.23;;;11.65;;
69047;SDS011;56119;50.118;8.642;2023-05-08T06:45:01;14.05;;;12.25;;
69047;SDS011;56119;50.118;8.642;2023-05-08T06:47:27;15.02;;;12.55;;
69047;SDS011;56119;50.118;8.642;2023-05-08T06:49:53;13.93;;;12.45;;
69047;SDS011;56119;50.118;8.642;2023-05-08T06:52:19;16.83;;;11.73;;
69047;SDS011;56119;50.118;8.642;2023-05-08T06:54:45;15.02;;;13.43;;
69047;SDS011;56119;50.118;8.642;2023-05-08T06:57:11;13.23;;;11.85;;
69047;SDS011;56119;50.118;8.642;2023-05-08T06:59:38;14.30;;;12.40;;
69047;SDS011;56119;50.118;8.642;2023-05-08T07:02:05;12.60;;;10.77;;
69047;SDS011;56119;50.118;8.642;2023-05-08T07:04:31;15.77;;;12.43;;
69047;SDS011;56119;50.118;8.642;2023-05-08T07:06:57;14.00;;;11.85;;
69047;SDS011;56119;50.118;8.642;2023-05-08T07:09:24;13.98;;;12.48;;
69047;SDS011;56119;50.118;8.642;2023-05-08T07:11:50;13.13;;;11.77;;
69047;SDS011;56119;50.118;8.642;2023-05-08T07:14:16;13.55;;;11.40;;
69047;SDS011;56119;50.118;8.642;2023-05-08T07:16:42;13.80;;;11.70;;
69047;SDS011;56119;50.118;8.642;2023-05-08T07:19:08;13.18;;;11.23;;
69047;SDS011;56119;50.118;8.642;2023-05-08T07:21:34;12.80;;;11.35;;
69047;SDS011;56119;50.118;8.642;2023-05-08T07:24:01;13.00;;;11.65;;
69047;SDS011;56119;50.118;8.642;2023-05-08T07:26:27;13.43;;;11.40;;
69047;SDS011;56119;50.118;8.642;2023-05-08T07:28:53;12.98;;;11.60;;
69047;SDS011;56119;50.118;8.642;2023-05-08T07:31:19;13.52;;;12.13;;
69047;SDS011;56119;50.118;8.642;2023-05-08T07:33:45;13.38;;;11.73;;
69047;SDS011;56119;50.118;8.642;2023-05-08T07:36:11;11.90;;;10.63;;
69047;SDS011;56119;50.118;8.642;2023-05-08T07:38:38;12.90;;;11.57;;
69047;SDS011;56119;50.118;8.642;2023-05-08T07:41:03;14.90;;;12.27;;
69047;SDS011;56119;50.118;8.642;2023-05-08T07:43:30;13.00;;;11.65;;
69047;SDS011;56119;50.118;8.642;2023-05-08T07:45:57;13.27;;;11.52;;
69047;SDS011;56119;50.118;8.642;2023-05-08T07:48:23;15.77;;;12.00;;
69047;SDS011;56119;50.118;8.642;2023-05-08T07:50:49;13.10;;;11.65;;
69047;SDS011;56119;50.118;8.642;2023-05-08T07:53:15;13.40;;;12.00;;
69047;SDS011;56119;50.118;8.642;2023-05-08T07:55:41;17.15;;;12.68;;
69047;SDS011;56119;50.118;8.642;2023-05-08T07:58:07;13.18;;;11.80;;
69047;SDS011;56119;50.118;8.642;2023-05-08T08:00:33;13.68;;;12.25;;
69047;SDS011;56119;50.118;8.642;2023-05-08T08:03:00;13.52;;;11.30;;
69047;SDS011;56119;50.118;8.642;2023-05-08T08:05:26;14.07;;;12.65;;
69047;SDS011;56119;50.118;8.642;2023-05-08T08:07:52;13.60;;;11.40;;
69047;SDS011;56119;50.118;8.642;2023-05-08T08:10:18;12.77;;;11.43;;
69047;SDS011;56119;50.118;8.642;2023-05-08T08:12:44;13.98;;;12.38;;
69047;SDS011;56119;50.118;8.642;2023-05-08T08:15:10;14.57;;;12.70;;
69047;SDS011;56119;50.118;8.642;2023-05-08T08:17:36;14.50;;;11.80;;
69047;SDS011;56119;50.118;8.642;2023-05-08T08:20:02;13.13;;;11.80;;
69047;SDS011;56119;50.118;8.642;2023-05-08T08:22:28;12.32;;;11.05;;
69047;SDS011;56119;50.118;8.642;2023-05-08T08:24:54;13.55;;;12.13;;
69047;SDS011;56119;50.118;8.642;2023-05-08T08:27:21;14.30;;;12.13;;
69047;SDS011;56119;50.118;8.642;2023-05-08T08:29:46;13.88;;;12.48;;
69047;SDS011;56119;50.118;8.642;2023-05-08T08:32:12;12.63;;;11.25;;
69047;SDS011;56119;50.118;8.642;2023-05-08T08:34:38;14.65;;;12.52;;
69047;SDS011;56119;50.118;8.642;2023-05-08T08:37:05;13.20;;;11.30;;
69047;SDS011;56119;50.118;8.642;2023-05-08T08:39:34;14.13;;;11.50;;
69047;SDS011;56119;50.118;8.642;2023-05-08T08:42:00;13.70;;;11.75;;
69047;SDS011;56119;50.118;8.642;2023-05-08T08:44:26;12.93;;;11.63;;
69047;SDS011;56119;50.118;8.642;2023-05-08T08:46:53;14.32;;;11.38;;
69047;SDS011;56119;50.118;8.642;2023-05-08T08:49:31;14.95;;;11.63;;
69047;SDS011;56119;50.118;8.642;2023-05-08T08:52:02;12.88;;;11.40;;
69047;SDS011;56119;50.118;8.642;2023-05-08T08:54:29;12.30;;;11.05;;
69047;SDS011;56119;50.118;8.642;2023-05-08T08:56:59;14.07;;;11.25;;
69047;SDS011;56119;50.118;8.642;2023-05-08T08:59:26;13.52;;;11.13;;
69047;SDS011;56119;50.118;8.642;2023-05-08T09:01:56;12.20;;;11.00;;
69047;SDS011;56119;50.118;8.642;2023-05-08T09:04:23;12.25;;;10.30;;
69047;SDS011;56119;50.118;8.642;2023-05-08T09:06:51;11.77;;;10.43;;
69047;SDS011;56119;50.118;8.642;2023-05-08T09:09:18;12.73;;;10.90;;
69047;SDS011;56119;50.118;8.642;2023-05-08T09:11:45;11.63;;;10.40;;
69047;SDS011;56119;50.118;8.642;2023-05-08T09:14:11;12.82;;;11.52;;
69047;SDS011;56119;50.118;8.642;2023-05-08T09:16:37;15.85;;;12.38;;
69047;SDS011;56119;50.118;8.642;2023-05-08T09:19:04;13.52;;;12.10;;
69047;SDS011;56119;50.118;8.642;2023-05-08T09:21:30;13.50;;;11.48;;
69047;SDS011;56119;50.118;8.642;2023-05-08T09:23:57;14.85;;;11.45;;
69047;SDS011;56119;50.118;8.642;2023-05-08T09:26:33;14.57;;;12.18;;
69047;SDS011;56119;50.118;8.642;2023-05-08T09:31:45;13.32;;;11.50;;
69047;SDS011;56119;50.118;8.642;2023-05-08T09:34:20;14.55;;;11.88;;
69047;SDS011;56119;50.118;8.642;2023-05-08T09:36:48;12.90;;;11.60;;
69047;SDS011;56119;50.118;8.642;2023-05-08T09:39:20;15.10;;;11.57;;
69047;SDS011;56119;50.118;8.642;2023-05-08T09:42:01;12.95;;;11.43;;
69047;SDS011;56119;50.118;8.642;2023-05-08T09:44:27;12.85;;;11.65;;
69047;SDS011;56119;50.118;8.642;2023-05-08T09:47:08;14.68;;;12.52;;
69047;SDS011;56119;50.118;8.642;2023-05-08T09:49:34;17.05;;;12.68;;
69047;SDS011;56119;50.118;8.642;2023-05-08T09:52:01;14.35;;;12.05;;
69047;SDS011;56119;50.118;8.642;2023-05-08T09:54:27;14.43;;;12.32;;
69047;SDS011;56119;50.118;8.642;2023-05-08T09:56:53;13.30;;;11.95;;
69047;SDS011;56119;50.118;8.642;2023-05-08T09:59:26;13.73;;;11.98;;
69047;SDS011;56119;50.118;8.642;2023-05-08T10:01:53;13.90;;;12.43;;
69047;SDS011;56119;50.118;8.642;2023-05-08T10:04:32;13.98;;;12.05;;
69047;SDS011;56119;50.118;8.642;2023-05-08T10:06:58;12.88;;;11.55;;
69047;SDS011;56119;50.118;8.642;2023-05-08T10:09:24;14.48;;;12.88;;
69047;SDS011;56119;50.118;8.642;2023-05-08T10:11:51;14.65;;;12.55;;
69047;SDS011;56119;50.118;8.642;2023-05-08T10:14:23;17.52;;;12.73;;
69047;SDS011;56119;50.118;8.642;2023-05-08T10:16:50;12.73;;;11.35;;
69047;SDS011;56119;50.118;8.642;2023-05-08T10:19:23;13.23;;;11.82;;
69047;SDS011;56119;50.118;8.642;2023-05-08T10:21:52;15.55;;;13.50;;
69047;SDS011;56119;50.118;8.642;2023-05-08T10:24:19;14.75;;;13.18;;
69047;SDS011;56119;50.118;8.642;2023-05-08T10:29:20;14.80;;;12.98;;
69047;SDS011;56119;50.118;8.642;2023-05-08T10:31:49;13.18;;;11.77;;
69047;SDS011;56119;50.118;8.642;2023-05-08T10:34:19;14.05;;;12.45;;
69047;SDS011;56119;50.118;8.642;2023-05-08T10:36:47;15.65;;;12.93;;
69047;SDS011;56119;50.118;8.642;2023-05-08T10:39:16;13.13;;;11.88;;
69047;SDS011;56119;50.118;8.642;2023-05-08T10:41:42;13.93;;;12.43;;
69047;SDS011;56119;50.118;8.642;2023-05-08T10:44:08;15.77;;;13.35;;
69047;SDS011;56119;50.118;8.642;2023-05-08T10:46:56;13.77;;;12.27;;
69047;SDS011;56119;50.118;8.642;2023-05-08T10:49:30;14.38;;;12.32;;
69047;SDS011;56119;50.118;8.642;2023-05-08T10:54:33;14.77;;;11.07;;
69047;SDS011;56119;50.118;8.642;2023-05-08T10:57:07;13.30;;;11.77;;
69047;SDS011;56119;50.118;8.642;2023-05-08T10:59:34;12.50;;;11.20;;
69047;SDS011;56119;50.118;8.642;2023-05-08T11:02:04;13.10;;;11.82;;
69047;SDS011;56119;50.118;8.642;2023-05-08T11:04:31;12.75;;;11.10;;
69047;SDS011;56119;50.118;8.642;2023-05-08T11:06:57;10.90;;;9.77;;
69047;SDS011;56119;50.118;8.642;2023-05-08T11:10:05;12.50;;;10.02;;
69047;SDS011;56119;50.118;8.642;2023-05-08T11:12:22;11.63;;;10.43;;
69047;SDS011;56119;50.118;8.642;2023-05-08T11:15:03;10.45;;;9.43;;
69047;SDS011;56119;50.118;8.642;2023-05-08T11:17:33;10.68;;;9.63;;
69047;SDS011;56119;50.118;8.642;2023-05-08T11:20:00;11.82;;;10.63;;
69047;SDS011;56119;50.118;8.642;2023-05-08T11:22:30;10.82;;;9.73;;
69047;SDS011;56119;50.118;8.642;2023-05-08T11:30:22;11.85;;;10.65;;
69047;SDS011;56119;50.118;8.642;2023-05-08T11:38:21;11.90;;;10.35;;
69047;SDS011;56119;50.118;8.642;2023-05-08T11:46:01;13.32;;;11.13;;
69047;SDS011;56119;50.118;8.642;2023-05-08T11:48:32;12.20;;;10.90;;
69047;SDS011;56119;50.118;8.642;2023-05-08T11:50:59;11.73;;;10.52;;
69047;SDS011;56119;50.118;8.642;2023-05-08T11:53:25;12.88;;;10.52;;
69047;SDS011;56119;50.118;8.642;2023-05-08T11:55:51;13.77;;;10.98;;
69047;SDS011;56119;50.118;8.642;2023-05-08T11:58:17;13.05;;;10.68;;
69047;SDS011;56119;50.118;8.642;2023-05-08T12:00:44;12.75;;;10.82;;
69047;SDS011;56119;50.118;8.642;2023-05-08T12:03:11;12.85;;;11.50;;
69047;SDS011;56119;50.118;8.642;2023-05-08T12:05:40;12.38;;;11.10;;
69047;SDS011;56119;50.118;8.642;2023-05-08T12:08:07;13.07;;;11.73;;
69047;SDS011;56119;50.118;8.642;2023-05-08T12:13:21;12.07;;;10.88;;
69047;SDS011;56119;50.118;8.642;2023-05-08T12:15:48;13.00;;;11.70;;
69047;SDS011;56119;50.118;8.642;2023-05-08T12:18:15;14.35;;;12.63;;
69047;SDS011;56119;50.118;8.642;2023-05-08T12:20:44;13.10;;;11.68;;
69047;SDS011;56119;50.118;8.642;2023-05-08T12:23:11;12.80;;;11.45;;
69047;SDS011;56119;50.118;8.642;2023-05-08T12:25:38;13.68;;;12.23;;
69047;SDS011;56119;50.118;8.642;2023-05-08T12:28:05;12.70;;;11.45;;
69047;SDS011;56119;50.118;8.642;2023-05-08T12:30:31;12.73;;;11.50;;
69047;SDS011;56119;50.118;8.642;2023-05-08T12:32:58;13.93;;;11.35;;
69047;SDS011;56119;50.118;8.642;2023-05-08T12:35:24;13.10;;;11.32;;
69047;SDS011;56119;50.118;8.642;2023-05-08T12:37:50;12.68;;;11.43;;
69047;SDS011;56119;50.118;8.642;2023-05-08T12:40:24;13.45;;;11.93;;
69047;SDS011;56119;50.118;8.642;2023-05-08T12:42:50;13.45;;;12.15;;
69047;SDS011;56119;50.118;8.642;2023-05-08T12:45:21;13.13;;;11.85;;
69047;SDS011;56119;50.118;8.642;2023-05-08T12:47:48;14.65;;;13.18;;
69047;SDS011;56119;50.118;8.642;2023-05-08T12:50:19;13.15;;;11.80;;
69047;SDS011;56119;50.118;8.642;2023-05-08T12:52:45;13.35;;;11.82;;
69047;SDS011;56119;50.118;8.642;2023-05-08T12:55:22;14.50;;;12.57;;
69047;SDS011;56119;50.118;8.642;2023-05-08T12:57:58;12.07;;;10.77;;
69047;SDS011;56119;50.118;8.642;2023-05-08T13:00:24;13.23;;;11.93;;
69047;SDS011;56119;50.118;8.642;2023-05-08T13:02:51;12.52;;;10.80;;
69047;SDS011;56119;50.118;8.642;2023-05-08T13:05:21;13.52;;;12.13;;
69047;SDS011;56119;50.118;8.642;2023-05-08T13:07:50;13.65;;;11.57;;
69047;SDS011;56119;50.118;8.642;2023-05-08T13:10:16;12.73;;;11.43;;
69047;SDS011;56119;50.118;8.642;2023-05-08T13:12:45;13.13;;;11.77;;
69047;SDS011;56119;50.118;8.642;2023-05-08T13:15:11;13.88;;;12.40;;
69047;SDS011;56119;50.118;8.642;2023-05-08T13:17:38;11.65;;;10.55;;
69047;SDS011;56119;50.118;8.642;2023-05-08T13:20:04;21.17;;;17.58;;
69047;SDS011;56119;50.118;8.642;2023-05-08T13:22:30;13.82;;;12.32;;
69047;SDS011;56119;50.118;8.642;2023-05-08T13:24:56;13.07;;;11.68;;
69047;SDS011;56119;50.118;8.642;2023-05-08T13:27:28;12.98;;;11.63;;
69047;SDS011;56119;50.118;8.642;2023-05-08T13:29:54;13.52;;;12.13;;
69047;SDS011;56119;50.118;8.642;2023-05-08T13:32:20;12.52;;;11.13;;
69047;SDS011;56119;50.118;8.642;2023-05-08T13:34:46;12.95;;;11.05;;
69047;SDS011;56119;50.118;8.642;2023-05-08T13:37:12;12.00;;;10.60;;
69047;SDS011;56119;50.118;8.642;2023-05-08T13:39:38;14.68;;;10.75;;
69047;SDS011;56119;50.118;8.642;2023-05-08T13:42:05;12.40;;;11.02;;
69047;SDS011;56119;50.118;8.642;2023-05-08T13:44:31;14.10;;;10.55;;
69047;SDS011;56119;50.118;8.642;2023-05-08T13:46:57;13.15;;;10.32;;
69047;SDS011;56119;50.118;8.642;2023-05-08T13:49:23;10.60;;;9.50;;
69047;SDS011;56119;50.118;8.642;2023-05-08T13:51:50;10.93;;;9.30;;
69047;SDS011;56119;50.118;8.642;2023-05-08T13:54:16;10.48;;;9.48;;
69047;SDS011;56119;50.118;8.642;2023-05-08T13:56:42;12.80;;;10.32;;
69047;SDS011;56119;50.118;8.642;2023-05-08T13:59:08;11.15;;;9.85;;
69047;SDS011;56119;50.118;8.642;2023-05-08T14:01:34;10.57;;;9.48;;
69047;SDS011;56119;50.118;8.642;2023-05-08T14:04:00;12.70;;;10.02;;
69047;SDS011;56119;50.118;8.642;2023-05-08T14:06:26;11.23;;;9.60;;
69047;SDS011;56119;50.118;8.642;2023-05-08T14:08:52;14.65;;;9.73;;
69047;SDS011;56119;50.118;8.642;2023-05-08T14:11:18;12.90;;;9.70;;
69047;SDS011;56119;50.118;8.642;2023-05-08T14:13:44;10.05;;;9.07;;
69047;SDS011;56119;50.118;8.642;2023-05-08T14:16:10;10.52;;;9.10;;
69047;SDS011;56119;50.118;8.642;2023-05-08T14:18:38;10.32;;;8.70;;
69047;SDS011;56119;50.118;8.642;2023-05-08T14:21:04;12.02;;;9.38;;
69047;SDS011;56119;50.118;8.642;2023-05-08T14:23:30;10.02;;;9.02;;
69047;SDS011;56119;50.118;8.642;2023-05-08T14:25:56;10.68;;;8.50;;
69047;SDS011;56119;50.118;8.642;2023-05-08T14:28:22;11.30;;;9.38;;
69047;SDS011;56119;50.118;8.642;2023-05-08T14:30:48;9.73;;;8.73;;
69047;SDS011;56119;50.118;8.642;2023-05-08T14:33:14;9.68;;;8.73;;
69047;SDS011;56119;50.118;8.642;2023-05-08T14:35:40;11.38;;;9.38;;
69047;SDS011;56119;50.118;8.642;2023-05-08T14:38:07;11.57;;;10.40;;
69047;SDS011;56119;50.118;8.642;2023-05-08T14:40:39;10.13;;;8.68;;
69047;SDS011;56119;50.118;8.642;2023-05-08T14:43:05;9.35;;;8.45;;
69047;SDS011;56119;50.118;8.642;2023-05-08T14:45:31;9.73;;;8.80;;
69047;SDS011;56119;50.118;8.642;2023-05-08T14:47:57;9.40;;;8.43;;
69047;SDS011;56119;50.118;8.642;2023-05-08T14:50:24;9.80;;;8.85;;
69047;SDS011;56119;50.118;8.642;2023-05-08T14:52:51;9.02;;;8.15;;
69047;SDS011;56119;50.118;8.642;2023-05-08T14:55:18;9.70;;;8.80;;
69047;SDS011;56119;50.118;8.642;2023-05-08T14:57:50;9.75;;;8.75;;
69047;SDS011;56119;50.118;8.642;2023-05-08T15:00:16;11.20;;;10.07;;
69047;SDS011;56119;50.118;8.642;2023-05-08T15:02:43;10.77;;;9.52;;
69047;SDS011;56119;50.118;8.642;2023-05-08T15:05:09;11.07;;;9.35;;
69047;SDS011;56119;50.118;8.642;2023-05-08T15:07:35;10.70;;;9.70;;
69047;SDS011;56119;50.118;8.642;2023-05-08T15:10:04;9.82;;;8.82;;
69047;SDS011;56119;50.118;8.642;2023-05-08T15:12:30;10.02;;;7.50;;
69047;SDS011;56119;50.118;8.642;2023-05-08T15:14:56;8.98;;;7.80;;
69047;SDS011;56119;50.118;8.642;2023-05-08T15:17:22;9.13;;;8.20;;
69047;SDS011;56119;50.118;8.642;2023-05-08T15:19:48;8.05;;;6.53;;
69047;SDS011;56119;50.118;8.642;2023-05-08T15:22:14;7.30;;;6.60;;
69047;SDS011;56119;50.118;8.642;2023-05-08T15:24:41;9.35;;;7.82;;
69047;SDS011;56119;50.118;8.642;2023-05-08T15:27:08;8.65;;;7.03;;